createdAt,value
2023-03-08T00:00:18.900Z,3.80
2023-03-08T00:02:46.607Z,3.50
2023-03-08T00:05:14.356Z,3.30
2023-03-08T00:07:42.059Z,3.80
2023-03-08T00:10:11.540Z,3.70
2023-03-08T00:12:39.253Z,4.20
2023-03-08T00:15:09.142Z,4.13
2023-03-08T00:17:37.901Z,3.80
2023-03-08T00:20:06.918Z,3.90
2023-03-08T00:22:36.697Z,3.60
2023-03-08T00:25:04.796Z,3.90
2023-03-08T00:27:33.623Z,4.10
2023-03-08T00:30:01.332Z,4.30
2023-03-08T00:32:30.526Z,4.13
2023-03-08T00:34:58.376Z,4.07
2023-03-08T00:37:26.181Z,4.40
2023-03-08T00:39:54.904Z,4.60
2023-03-08T00:42:23.401Z,3.93
2023-03-08T00:44:51.294Z,3.73
2023-03-08T00:47:19.002Z,3.70
2023-03-08T00:49:48.067Z,4.33
2023-03-08T00:52:15.805Z,3.40
2023-03-08T00:54:43.777Z,3.37
2023-03-08T00:57:11.515Z,4.10
2023-03-08T00:59:39.427Z,4.97
2023-03-08T01:02:07.111Z,4.27
2023-03-08T01:04:35.013Z,4.47
2023-03-08T01:07:04.104Z,3.83
2023-03-08T01:09:31.866Z,4.70
2023-03-08T01:11:59.629Z,4.00
2023-03-08T01:14:27.514Z,4.20
2023-03-08T01:16:55.209Z,4.70
2023-03-08T01:19:22.922Z,4.60
2023-03-08T01:21:50.643Z,4.23
2023-03-08T01:24:19.684Z,5.40
2023-03-08T01:26:47.392Z,4.60
2023-03-08T01:29:15.096Z,5.00
2023-03-08T01:31:42.811Z,4.67
2023-03-08T01:34:10.871Z,5.60
2023-03-08T01:36:38.588Z,3.93
2023-03-08T01:39:06.299Z,4.17
2023-03-08T01:41:35.431Z,4.27
2023-03-08T01:44:03.254Z,4.20
2023-03-08T01:46:31.767Z,4.20
2023-03-08T01:49:06.143Z,3.93
2023-03-08T01:51:38.532Z,4.03
2023-03-08T01:54:10.504Z,4.23
2023-03-08T01:56:41.626Z,3.97
2023-03-08T01:59:09.757Z,4.50
2023-03-08T02:01:37.719Z,5.63
2023-03-08T02:04:06.278Z,5.73
2023-03-08T02:06:34.589Z,4.57
2023-03-08T02:09:05.465Z,4.80
2023-03-08T02:11:34.297Z,5.00
2023-03-08T02:14:03.622Z,4.00
2023-03-08T02:16:31.342Z,4.40
2023-03-08T02:19:00.935Z,4.10
2023-03-08T02:21:30.462Z,4.30
2023-03-08T02:24:06.150Z,4.10
2023-03-08T02:26:34.832Z,5.33
2023-03-08T02:29:02.628Z,4.33
2023-03-08T02:31:30.301Z,4.63
2023-03-08T02:33:58.009Z,5.07
2023-03-08T02:36:25.744Z,4.80
2023-03-08T02:38:53.441Z,5.07
2023-03-08T02:41:22.789Z,5.10
2023-03-08T02:43:50.507Z,4.60
2023-03-08T02:46:18.254Z,5.77
2023-03-08T02:48:46.786Z,4.97
2023-03-08T02:51:14.734Z,5.03
2023-03-08T02:53:42.430Z,4.47
2023-03-08T02:56:10.139Z,5.57
2023-03-08T02:58:39.230Z,5.17
2023-03-08T03:01:12.463Z,6.60
2023-03-08T03:03:40.475Z,6.40
2023-03-08T03:06:15.451Z,4.90
2023-03-08T03:08:43.260Z,4.20
2023-03-08T03:11:14.625Z,5.63
2023-03-08T03:13:43.682Z,5.50
2023-03-08T03:16:14.111Z,5.23
2023-03-08T03:18:41.887Z,5.20
2023-03-08T03:21:12.267Z,6.23
2023-03-08T03:23:40.151Z,5.10
2023-03-08T03:26:09.595Z,5.43
2023-03-08T03:28:37.587Z,5.50
2023-03-08T03:31:10.529Z,5.80
2023-03-08T03:33:38.387Z,5.20
2023-03-08T03:36:06.858Z,6.07
2023-03-08T03:38:34.632Z,6.07
2023-03-08T03:41:03.344Z,4.80
2023-03-08T03:43:31.532Z,5.30
2023-03-08T03:46:00.359Z,4.63
2023-03-08T03:48:29.505Z,5.77
2023-03-08T03:50:58.256Z,6.53
2023-03-08T03:53:26.597Z,5.50
2023-03-08T03:55:54.314Z,5.60
2023-03-08T03:58:22.211Z,4.63
2023-03-08T04:00:49.883Z,4.57
2023-03-08T04:03:17.678Z,5.90
2023-03-08T04:05:46.737Z,5.57
2023-03-08T04:08:14.549Z,5.80
2023-03-08T04:10:42.272Z,5.87
2023-03-08T04:13:11.645Z,5.80
2023-03-08T04:15:39.377Z,5.57
2023-03-08T04:18:07.113Z,6.23
2023-03-08T04:20:34.806Z,6.53
2023-03-08T04:23:03.860Z,6.70
2023-03-08T04:25:31.591Z,6.07
2023-03-08T04:27:59.298Z,9.63
2023-03-08T04:30:27.025Z,7.73
2023-03-08T04:32:54.778Z,6.70
2023-03-08T04:35:22.753Z,6.27
2023-03-08T04:37:50.449Z,6.23
2023-03-08T04:40:19.719Z,6.63
2023-03-08T04:42:47.570Z,6.23
2023-03-08T04:45:16.213Z,7.97
2023-03-08T04:47:43.935Z,7.70
2023-03-08T04:50:12.649Z,8.30
2023-03-08T04:52:40.811Z,7.20
2023-03-08T04:55:09.082Z,7.93
2023-03-08T04:57:38.183Z,7.27
2023-03-08T05:00:06.596Z,7.13
2023-03-08T05:02:34.332Z,7.07
2023-03-08T05:05:02.085Z,7.50
2023-03-08T05:07:29.791Z,6.80
2023-03-08T05:09:57.465Z,7.63
2023-03-08T05:12:25.159Z,6.83
2023-03-08T05:14:54.276Z,7.00
2023-03-08T05:17:22.038Z,6.90
2023-03-08T05:19:50.328Z,7.33
2023-03-08T05:22:18.146Z,7.87
2023-03-08T05:24:46.384Z,7.10
2023-03-08T05:27:14.100Z,6.90
2023-03-08T05:29:41.963Z,7.13
2023-03-08T05:32:13.512Z,7.70
2023-03-08T05:34:41.301Z,6.83
2023-03-08T05:37:09.041Z,6.40
2023-03-08T05:39:36.864Z,6.90
2023-03-08T05:42:04.748Z,6.20
2023-03-08T05:44:32.483Z,6.20
2023-03-08T05:47:00.317Z,7.33
2023-03-08T05:49:29.556Z,7.20
2023-03-08T05:51:57.517Z,6.90
2023-03-08T05:54:25.244Z,7.00
2023-03-08T05:56:52.921Z,6.60
2023-03-08T05:59:20.653Z,7.00
2023-03-08T06:01:48.381Z,8.13
2023-03-08T06:04:16.212Z,6.17
2023-03-08T06:06:45.201Z,7.47
2023-03-08T06:09:12.900Z,6.93
2023-03-08T06:11:40.591Z,7.17
2023-03-08T06:14:08.570Z,7.57
2023-03-08T06:16:36.362Z,6.93
2023-03-08T06:19:04.326Z,7.50
2023-03-08T06:21:32.138Z,9.57
2023-03-08T06:24:01.156Z,9.10
2023-03-08T06:26:28.946Z,8.57
2023-03-08T06:28:56.666Z,6.90
2023-03-08T06:31:24.421Z,7.43
2023-03-08T06:33:52.185Z,8.17
2023-03-08T06:36:21.434Z,8.00
2023-03-08T06:38:49.870Z,8.27
2023-03-08T06:41:20.417Z,7.63
2023-03-08T06:43:48.517Z,7.10
2023-03-08T06:46:18.828Z,8.00
2023-03-08T06:48:47.419Z,8.70
2023-03-08T06:51:15.741Z,8.33
2023-03-08T06:53:43.449Z,7.43
2023-03-08T06:56:13.882Z,8.63
2023-03-08T06:58:43.951Z,7.93
2023-03-08T07:01:13.663Z,8.43
2023-03-08T07:03:41.503Z,7.10
2023-03-08T07:06:11.027Z,7.37
2023-03-08T07:08:40.112Z,8.97
2023-03-08T07:11:09.674Z,9.13
2023-03-08T07:13:37.694Z,8.77
2023-03-08T07:16:12.025Z,8.00
2023-03-08T07:18:39.894Z,8.43
2023-03-08T07:21:08.161Z,9.80
2023-03-08T07:23:35.880Z,9.70
2023-03-08T07:26:05.767Z,10.33
2023-03-08T07:28:33.540Z,8.07
2023-03-08T07:31:01.224Z,9.37
2023-03-08T07:33:30.763Z,9.40
2023-03-08T07:36:01.894Z,8.30
2023-03-08T07:38:30.091Z,9.27
2023-03-08T07:40:58.360Z,8.60
2023-03-08T07:43:26.163Z,8.67
2023-03-08T07:45:53.871Z,9.10
2023-03-08T07:48:21.603Z,9.30
2023-03-08T07:50:50.618Z,8.37
2023-03-08T07:53:18.294Z,9.10
2023-03-08T07:55:46.110Z,9.87
2023-03-08T07:58:14.136Z,8.67
2023-03-08T08:00:41.842Z,8.90
2023-03-08T08:03:09.828Z,9.27
2023-03-08T08:05:37.734Z,9.50
2023-03-08T08:08:06.855Z,8.97
2023-03-08T08:10:34.626Z,9.10
2023-03-08T08:13:02.458Z,8.30
2023-03-08T08:15:30.926Z,8.40
2023-03-08T08:17:58.664Z,9.37
2023-03-08T08:20:27.014Z,10.00
2023-03-08T08:22:55.103Z,9.03
2023-03-08T08:25:24.216Z,8.97
2023-03-08T08:27:52.308Z,9.90
2023-03-08T08:30:20.441Z,10.17
2023-03-08T08:32:48.278Z,9.40
2023-03-08T08:35:16.032Z,8.87
2023-03-08T08:37:43.792Z,8.63
2023-03-08T08:40:12.930Z,9.60
2023-03-08T08:42:41.955Z,8.80
2023-03-08T08:45:10.568Z,9.00
2023-03-08T08:47:38.299Z,9.27
2023-03-08T08:50:06.551Z,9.20
2023-03-08T08:52:34.621Z,9.33
2023-03-08T08:55:02.647Z,8.87
2023-03-08T08:57:30.412Z,9.27
2023-03-08T08:59:59.533Z,9.20
2023-03-08T09:02:27.326Z,9.80
2023-03-08T09:04:55.375Z,9.53
2023-03-08T09:07:23.178Z,10.17
2023-03-08T09:09:50.901Z,10.20
2023-03-08T09:12:19.640Z,9.43
2023-03-08T09:14:47.387Z,11.10
2023-03-08T09:17:16.429Z,9.40
2023-03-08T09:19:44.140Z,10.00
2023-03-08T09:22:12.445Z,9.20
2023-03-08T09:24:40.136Z,9.37
2023-03-08T09:27:08.316Z,10.00
2023-03-08T09:29:37.898Z,11.40
2023-03-08T09:32:06.464Z,11.67
2023-03-08T09:34:35.709Z,9.90
2023-03-08T09:37:03.755Z,9.93
2023-03-08T09:39:31.491Z,10.90
2023-03-08T09:42:00.797Z,10.33
2023-03-08T09:45:02.977Z,9.20
2023-03-08T09:47:39.568Z,8.50
2023-03-08T09:50:26.212Z,8.50
2023-03-08T09:53:00.148Z,8.40
2023-03-08T09:55:30.844Z,8.73
2023-03-08T09:58:02.670Z,9.67
2023-03-08T10:00:33.207Z,8.10
2023-03-08T10:03:22.874Z,8.60
2023-03-08T10:05:58.133Z,8.60
2023-03-08T10:08:32.993Z,10.03
2023-03-08T10:11:03.532Z,9.03
2023-03-08T10:13:34.108Z,10.07
2023-03-08T10:16:12.084Z,9.50
2023-03-08T10:18:45.577Z,8.07
2023-03-08T10:21:18.160Z,8.27
2023-03-08T10:23:48.585Z,8.43
2023-03-08T10:26:18.491Z,8.87
2023-03-08T10:28:46.187Z,8.60
2023-03-08T10:31:23.692Z,10.30
2023-03-08T10:33:58.107Z,10.87
2023-03-08T10:36:27.428Z,8.53
2023-03-08T10:39:03.449Z,9.00
2023-03-08T10:41:37.386Z,8.53
2023-03-08T10:44:05.246Z,7.53
2023-03-08T10:46:33.791Z,7.90
2023-03-08T10:49:10.243Z,7.50
2023-03-08T10:51:39.378Z,6.63
2023-03-08T10:54:12.297Z,6.53
2023-03-08T10:56:44.678Z,5.90
2023-03-08T10:59:28.044Z,3.33
2023-03-08T11:01:59.073Z,4.10
2023-03-08T11:04:29.031Z,4.50
2023-03-08T11:06:58.796Z,3.07
2023-03-08T11:09:28.653Z,2.47
2023-03-08T11:11:57.422Z,3.00
2023-03-08T11:14:26.276Z,3.33
2023-03-08T11:17:03.040Z,2.87
2023-03-08T11:19:40.334Z,4.80
2023-03-08T11:22:21.978Z,6.07
2023-03-08T11:25:06.918Z,4.73
2023-03-08T11:27:49.399Z,4.00
2023-03-08T11:30:27.999Z,4.97
2023-03-08T11:33:20.591Z,4.00
2023-03-08T11:35:54.006Z,3.57
2023-03-08T11:38:26.485Z,2.87
2023-03-08T11:41:04.282Z,2.43
2023-03-08T11:43:46.612Z,3.53
2023-03-08T11:46:20.766Z,5.00
2023-03-08T11:49:25.654Z,5.50
2023-03-08T11:52:01.878Z,4.50
2023-03-08T11:54:43.063Z,6.30
2023-03-08T11:57:13.083Z,4.37
2023-03-08T11:59:45.548Z,4.50
2023-03-08T12:02:19.454Z,3.40
2023-03-08T12:04:54.735Z,4.30
2023-03-08T12:07:28.459Z,3.33
2023-03-08T12:10:04.059Z,3.87
2023-03-08T12:12:35.891Z,4.17
2023-03-08T12:15:12.440Z,4.40
2023-03-08T12:17:45.187Z,4.10
2023-03-08T12:20:15.687Z,4.23
2023-03-08T12:22:47.268Z,4.60
2023-03-08T12:25:25.186Z,4.37
2023-03-08T12:27:58.976Z,4.37
2023-03-08T12:30:37.535Z,5.70
2023-03-08T12:33:07.420Z,3.90
2023-03-08T12:35:40.415Z,3.53
2023-03-08T12:38:32.977Z,4.10
2023-03-08T12:41:03.014Z,3.43
2023-03-08T12:43:33.193Z,3.20
2023-03-08T12:46:04.945Z,4.23
2023-03-08T12:48:35.538Z,3.67
2023-03-08T12:51:09.681Z,3.77
2023-03-08T12:53:41.579Z,4.17
2023-03-08T12:56:24.829Z,4.40
2023-03-08T12:58:55.594Z,4.03
2023-03-08T13:01:33.658Z,5.00
2023-03-08T13:04:01.515Z,4.70
2023-03-08T13:06:50.731Z,4.37
2023-03-08T13:09:23.776Z,5.20
2023-03-08T13:12:01.760Z,4.80
2023-03-08T13:14:40.560Z,5.53
2023-03-08T13:17:37.008Z,5.47
2023-03-08T13:20:15.355Z,5.43
2023-03-08T13:22:54.947Z,5.00
2023-03-08T13:25:36.922Z,4.53
2023-03-08T13:28:09.919Z,6.27
2023-03-08T13:30:39.622Z,5.53
2023-03-08T13:33:13.484Z,5.63
2023-03-08T13:35:41.377Z,5.07
2023-03-08T13:38:20.120Z,4.73
2023-03-08T13:40:51.894Z,4.90
2023-03-08T13:43:23.244Z,4.60
2023-03-08T13:45:53.786Z,5.20
2023-03-08T13:48:23.720Z,5.03
2023-03-08T13:50:53.165Z,6.67
2023-03-08T13:53:23.147Z,4.97
2023-03-08T13:55:53.183Z,4.87
2023-03-08T13:58:33.081Z,6.07
2023-03-08T14:01:02.889Z,5.67
2023-03-08T14:03:32.675Z,5.63
2023-03-08T14:06:00.581Z,5.03
2023-03-08T14:08:29.442Z,4.20
2023-03-08T14:11:00.725Z,4.20
2023-03-08T14:13:33.396Z,4.68
2023-03-08T14:16:03.909Z,4.73
2023-03-08T14:18:34.917Z,4.40
2023-03-08T14:21:08.678Z,4.83
2023-03-08T14:23:41.223Z,4.27
2023-03-08T14:26:28.575Z,4.00
2023-03-08T14:29:18.274Z,4.80
2023-03-08T14:32:01.709Z,4.67
2023-03-08T14:34:33.812Z,3.63
2023-03-08T14:37:05.324Z,4.03
2023-03-08T14:39:35.250Z,3.83
2023-03-08T14:42:19.619Z,4.03
2023-03-08T14:44:53.795Z,4.83
2023-03-08T14:47:24.622Z,3.93
2023-03-08T14:50:02.705Z,4.00
2023-03-08T14:52:32.285Z,3.50
2023-03-08T14:55:00.253Z,3.90
2023-03-08T14:57:30.376Z,3.00
2023-03-08T15:00:08.012Z,4.07
2023-03-08T15:02:37.551Z,3.30
2023-03-08T15:05:07.860Z,3.10
2023-03-08T15:07:37.798Z,2.63
2023-03-08T15:10:07.853Z,2.30
2023-03-08T15:12:35.680Z,2.60
2023-03-08T15:15:12.980Z,3.37
2023-03-08T15:17:40.715Z,3.20
2023-03-08T15:20:10.370Z,4.20
2023-03-08T15:22:42.393Z,3.97
2023-03-08T15:25:14.936Z,3.70
2023-03-08T15:27:42.646Z,3.00
2023-03-08T15:30:17.732Z,2.73
2023-03-08T15:32:45.790Z,3.00
2023-03-08T15:35:13.647Z,4.50
2023-03-08T15:37:41.712Z,3.57
2023-03-08T15:40:14.066Z,3.73
2023-03-08T15:42:41.977Z,4.60
2023-03-08T15:45:10.856Z,3.67
2023-03-08T15:47:39.980Z,4.50
2023-03-08T15:50:15.602Z,3.70
2023-03-08T15:52:43.865Z,3.70
2023-03-08T15:55:13.053Z,3.73
2023-03-08T15:57:41.535Z,3.63
2023-03-08T16:00:12.455Z,4.50
2023-03-08T16:02:42.004Z,4.00
2023-03-08T16:05:12.082Z,4.53
2023-03-08T16:07:40.142Z,4.20
2023-03-08T16:10:10.163Z,4.90
2023-03-08T16:12:37.941Z,4.90
2023-03-08T16:15:06.853Z,5.70
2023-03-08T16:17:34.773Z,5.83
2023-03-08T16:20:06.066Z,5.00
2023-03-08T16:22:34.260Z,4.70
2023-03-08T16:25:02.043Z,5.23
2023-03-08T16:27:30.878Z,5.30
2023-03-08T16:29:58.652Z,5.20
2023-03-08T16:32:27.987Z,5.20
2023-03-08T16:34:57.863Z,5.53
2023-03-08T16:37:27.792Z,5.57
2023-03-08T16:39:57.458Z,5.50
2023-03-08T16:42:25.479Z,5.30
2023-03-08T16:44:55.770Z,6.20
2023-03-08T16:47:25.223Z,6.40
2023-03-08T16:49:53.009Z,5.17
2023-03-08T16:52:20.732Z,5.63
2023-03-08T16:54:49.795Z,6.37
2023-03-08T16:57:20.065Z,5.60
2023-03-08T16:59:48.319Z,5.50
2023-03-08T17:02:17.520Z,5.37
2023-03-08T17:04:45.640Z,4.90
2023-03-08T17:07:13.756Z,5.67
2023-03-08T17:09:41.845Z,6.50
2023-03-08T17:12:11.464Z,7.23
2023-03-08T17:14:39.874Z,6.40
2023-03-08T17:17:10.240Z,7.77
2023-03-08T17:19:40.779Z,6.20
2023-03-08T17:22:09.085Z,5.93
2023-03-08T17:24:37.038Z,7.17
2023-03-08T17:27:05.083Z,8.00
2023-03-08T17:29:34.189Z,7.87
2023-03-08T17:32:02.002Z,8.10
2023-03-08T17:34:29.720Z,8.27
2023-03-08T17:36:57.742Z,7.50
2023-03-08T17:39:25.510Z,8.30
2023-03-08T17:41:53.266Z,8.43
2023-03-08T17:44:20.956Z,8.80
2023-03-08T17:46:50.332Z,9.57
2023-03-08T17:49:23.120Z,10.53
2023-03-08T17:51:50.979Z,9.50
2023-03-08T17:54:19.521Z,9.60
2023-03-08T17:56:47.376Z,9.93
2023-03-08T17:59:17.091Z,10.13
2023-03-08T18:01:45.102Z,10.10
2023-03-08T18:04:14.208Z,11.47
2023-03-08T18:06:43.594Z,11.50
2023-03-08T18:09:12.909Z,11.40
2023-03-08T18:11:41.192Z,12.80
2023-03-08T18:14:11.049Z,12.67
2023-03-08T18:16:39.478Z,14.10
2023-03-08T18:19:08.055Z,12.53
2023-03-08T18:21:40.546Z,12.63
2023-03-08T18:24:10.173Z,13.90
2023-03-08T18:26:37.897Z,12.30
2023-03-08T18:29:05.641Z,10.90
2023-03-08T18:31:35.064Z,10.53
2023-03-08T18:34:02.969Z,10.50
2023-03-08T18:36:30.875Z,11.40
2023-03-08T18:39:00.127Z,11.50
2023-03-08T18:41:29.467Z,11.80
2023-03-08T18:43:59.288Z,11.57
2023-03-08T18:46:29.384Z,12.23
2023-03-08T18:48:57.408Z,11.30
2023-03-08T18:51:25.580Z,13.33
2023-03-08T18:53:54.841Z,14.33
2023-03-08T18:56:25.670Z,13.17
2023-03-08T18:58:53.642Z,13.97
2023-03-08T19:01:21.669Z,13.43
2023-03-08T19:03:50.031Z,13.60
2023-03-08T19:06:19.405Z,13.97
2023-03-08T19:08:47.152Z,14.97
2023-03-08T19:11:17.264Z,14.30
2023-03-08T19:13:46.948Z,13.97
2023-03-08T19:16:19.810Z,13.33
2023-03-08T19:18:48.451Z,13.50
2023-03-08T19:21:17.782Z,13.80
2023-03-08T19:23:45.678Z,12.30
2023-03-08T19:26:32.025Z,11.90
2023-03-08T19:29:02.003Z,11.67
2023-03-08T19:31:30.212Z,11.73
2023-03-08T19:33:58.117Z,12.40
2023-03-08T19:36:26.089Z,11.70
2023-03-08T19:38:55.349Z,12.47
2023-03-08T19:41:23.159Z,11.33
2023-03-08T19:43:50.962Z,11.67
2023-03-08T19:46:19.999Z,10.37
2023-03-08T19:48:47.863Z,9.93
2023-03-08T19:51:15.741Z,10.20
2023-03-08T19:53:44.563Z,10.40
2023-03-08T19:56:15.818Z,10.80
2023-03-08T19:58:43.716Z,9.57
2023-03-08T20:01:13.612Z,9.47
2023-03-08T20:03:42.987Z,9.40
2023-03-08T20:06:11.169Z,11.20
2023-03-08T20:08:40.399Z,11.30
2023-03-08T20:11:08.112Z,10.87
2023-03-08T20:13:35.858Z,10.87
2023-03-08T20:16:03.681Z,9.60
2023-03-08T20:18:32.435Z,10.00
2023-03-08T20:21:03.040Z,10.20
2023-03-08T20:23:32.166Z,8.60
2023-03-08T20:26:00.242Z,9.03
2023-03-08T20:28:28.208Z,8.33
2023-03-08T20:30:56.285Z,8.93
2023-03-08T20:33:24.127Z,8.53
2023-03-08T20:35:58.755Z,9.50
2023-03-08T20:38:28.120Z,9.10
2023-03-08T20:41:00.751Z,9.33
2023-03-08T20:43:29.093Z,8.57
2023-03-08T20:45:57.394Z,8.63
2023-03-08T20:48:25.406Z,8.57
2023-03-08T20:50:59.630Z,8.13
2023-03-08T20:53:29.468Z,9.00
2023-03-08T20:55:57.632Z,8.03
2023-03-08T20:58:26.324Z,8.97
2023-03-08T21:00:54.013Z,9.70
2023-03-08T21:03:22.737Z,9.50
2023-03-08T21:05:50.552Z,10.63
2023-03-08T21:08:18.396Z,10.20
2023-03-08T21:10:49.957Z,12.40
2023-03-08T21:13:17.732Z,10.50
2023-03-08T21:15:46.958Z,10.77
2023-03-08T21:18:14.749Z,12.77
2023-03-08T21:20:42.450Z,11.60
2023-03-08T21:23:19.338Z,13.00
2023-03-08T21:25:48.551Z,11.53
2023-03-08T21:28:16.409Z,11.60
2023-03-08T21:30:46.504Z,14.83
2023-03-08T21:33:14.265Z,12.77
2023-03-08T21:35:43.004Z,14.60
2023-03-08T21:38:11.238Z,12.50
2023-03-08T21:40:42.162Z,14.53
2023-03-08T21:43:12.357Z,15.10
2023-03-08T21:45:41.260Z,13.70
2023-03-08T21:48:09.912Z,13.67
2023-03-08T21:50:39.715Z,12.87
2023-03-08T21:53:07.572Z,13.50
2023-03-08T21:55:39.191Z,13.17
2023-03-08T21:58:07.190Z,13.07
2023-03-08T22:00:36.573Z,16.37
2023-03-08T22:03:04.689Z,12.30
2023-03-08T22:05:33.107Z,13.27
2023-03-08T22:08:00.862Z,11.90
2023-03-08T22:10:29.200Z,13.03
2023-03-08T22:12:57.018Z,11.33
2023-03-08T22:15:24.798Z,11.57
2023-03-08T22:17:54.367Z,9.90
2023-03-08T22:20:23.356Z,10.77
2023-03-08T22:22:51.075Z,10.30
2023-03-08T22:25:18.852Z,9.40
2023-03-08T22:27:46.567Z,11.70
2023-03-08T22:30:14.885Z,11.23
2023-03-08T22:32:43.288Z,10.50
2023-03-08T22:35:13.675Z,9.10
2023-03-08T22:37:42.018Z,10.07
2023-03-08T22:40:12.969Z,9.97
2023-03-08T22:42:40.870Z,9.30
2023-03-08T22:45:10.078Z,9.50
2023-03-08T22:47:37.973Z,9.80
2023-03-08T22:50:06.804Z,9.00
2023-03-08T22:52:35.859Z,8.73
2023-03-08T22:55:04.523Z,9.63
2023-03-08T22:57:32.576Z,10.17
2023-03-08T23:00:00.480Z,11.20
2023-03-08T23:02:28.448Z,9.37
2023-03-08T23:04:58.180Z,10.17
2023-03-08T23:07:25.996Z,10.60
2023-03-08T23:09:55.049Z,11.00
2023-03-08T23:12:22.776Z,10.53
2023-03-08T23:14:53.868Z,10.60
2023-03-08T23:17:21.638Z,11.97
2023-03-08T23:19:50.685Z,11.20
2023-03-08T23:22:19.031Z,9.63
2023-03-08T23:24:46.837Z,10.13
2023-03-08T23:27:15.916Z,9.77
2023-03-08T23:29:43.678Z,9.40
2023-03-08T23:32:11.541Z,9.40
2023-03-08T23:34:39.540Z,9.70
2023-03-08T23:37:07.251Z,8.87
2023-03-08T23:39:35.332Z,9.90
2023-03-08T23:42:03.082Z,8.93
2023-03-08T23:44:32.395Z,8.63
2023-03-08T23:47:00.107Z,8.47
2023-03-08T23:49:27.872Z,8.90
2023-03-08T23:51:55.586Z,8.30
2023-03-08T23:54:23.390Z,7.90
2023-03-08T23:56:51.094Z,7.60
2023-03-08T23:59:20.542Z,7.73
